createdAt,value
2023-01-18T00:00:18.122Z,7.68
2023-01-18T00:05:20.231Z,10.35
2023-01-18T00:10:23.663Z,5.40
2023-01-18T00:15:25.404Z,8.00
2023-01-18T00:20:29.282Z,6.22
2023-01-18T00:25:31.146Z,9.13
2023-01-18T00:30:32.982Z,6.10
2023-01-18T00:35:34.817Z,8.10
2023-01-18T00:40:36.592Z,6.18
2023-01-18T00:45:38.537Z,6.18
2023-01-18T00:50:40.368Z,6.68
2023-01-18T00:55:42.229Z,7.78
2023-01-18T01:00:44.230Z,4.05
2023-01-18T01:06:05.077Z,4.22
2023-01-18T01:11:12.556Z,6.95
2023-01-18T01:16:32.801Z,4.88
2023-01-18T01:21:53.243Z,6.75
2023-01-18T01:26:55.205Z,4.82
2023-01-18T01:31:57.033Z,5.20
2023-01-18T01:36:59.026Z,5.40
2023-01-18T01:42:02.072Z,5.55
2023-01-18T01:47:13.906Z,9.15
2023-01-18T01:52:25.423Z,22.02
2023-01-18T01:57:31.965Z,18.35
2023-01-18T02:02:36.612Z,18.00
2023-01-18T02:07:38.969Z,11.80
2023-01-18T02:12:44.758Z,5.85
2023-01-18T02:18:05.078Z,10.18
2023-01-18T02:23:25.317Z,5.90
2023-01-18T02:28:33.682Z,10.90
2023-01-18T02:33:58.339Z,5.72
2023-01-18T02:39:32.020Z,11.73
2023-01-18T02:44:59.174Z,6.78
2023-01-18T02:50:02.512Z,14.20
2023-01-18T02:55:06.527Z,6.70
2023-01-18T03:00:11.379Z,8.10
2023-01-18T03:05:13.796Z,7.68
2023-01-18T03:10:17.024Z,10.57
2023-01-18T03:15:29.107Z,14.43
2023-01-18T03:20:35.350Z,8.70
2023-01-18T03:25:59.321Z,9.75
2023-01-18T03:31:24.579Z,8.85
2023-01-18T03:36:43.810Z,5.70
2023-01-18T03:41:51.719Z,8.23
2023-01-18T03:51:58.169Z,11.90
2023-01-18T03:57:10.243Z,6.65
2023-01-18T04:02:12.219Z,5.93
2023-01-18T04:07:14.289Z,6.47
2023-01-18T04:12:16.098Z,12.40
2023-01-18T04:17:18.413Z,33.42
2023-01-18T04:22:20.155Z,20.80
2023-01-18T04:27:24.288Z,9.52
2023-01-18T04:32:26.338Z,12.60
2023-01-18T04:37:34.299Z,12.10
2023-01-18T04:47:37.687Z,12.02
2023-01-18T04:52:39.505Z,10.65
2023-01-18T04:57:42.967Z,13.32
2023-01-18T05:02:44.967Z,9.98
2023-01-18T05:07:46.848Z,14.52
2023-01-18T05:12:48.852Z,31.60
2023-01-18T05:17:50.683Z,18.88
2023-01-18T05:22:52.530Z,19.98
2023-01-18T05:27:54.383Z,16.13
2023-01-18T05:32:56.609Z,20.67
2023-01-18T05:37:58.756Z,11.20
2023-01-18T05:43:00.909Z,51.25
2023-01-18T05:48:04.130Z,14.75
2023-01-18T05:53:06.859Z,51.65
2023-01-18T05:58:09.119Z,25.60
2023-01-18T06:03:11.958Z,26.75
2023-01-18T06:08:14.264Z,19.45
2023-01-18T06:13:16.075Z,13.60
2023-01-18T06:18:17.980Z,14.88
2023-01-18T06:23:19.876Z,15.13
2023-01-18T06:28:22.757Z,14.15
2023-01-18T06:33:25.148Z,14.85
2023-01-18T06:38:27.313Z,13.65
2023-01-18T06:43:29.467Z,13.73
2023-01-18T06:48:31.337Z,17.92
2023-01-18T06:53:33.213Z,15.00
2023-01-18T06:58:34.970Z,20.40
2023-01-18T07:03:39.057Z,13.07
2023-01-18T07:08:42.226Z,14.95
2023-01-18T07:13:44.210Z,11.98
2023-01-18T07:18:47.738Z,15.68
2023-01-18T07:23:49.580Z,13.98
2023-01-18T07:28:52.069Z,18.02
2023-01-18T07:33:53.862Z,14.88
2023-01-18T07:38:55.791Z,11.10
2023-01-18T07:43:57.539Z,12.50
2023-01-18T07:48:59.457Z,14.93
2023-01-18T07:54:01.267Z,14.43
2023-01-18T07:59:03.063Z,13.50
2023-01-18T08:04:06.085Z,11.93
2023-01-18T08:09:08.089Z,11.75
2023-01-18T08:14:09.922Z,28.40
2023-01-18T08:19:11.775Z,13.65
2023-01-18T08:24:14.140Z,17.10
2023-01-18T08:29:15.894Z,18.65
2023-01-18T08:34:17.795Z,17.85
2023-01-18T08:39:19.594Z,18.48
2023-01-18T08:44:21.852Z,19.02
2023-01-18T08:49:23.636Z,17.85
2023-01-18T08:54:26.162Z,17.40
2023-01-18T08:59:28.395Z,17.40
2023-01-18T09:04:30.348Z,16.25
2023-01-18T09:09:32.280Z,18.95
2023-01-18T09:14:34.137Z,45.53
2023-01-18T09:19:36.034Z,24.20
2023-01-18T09:24:38.383Z,15.82
2023-01-18T09:29:40.477Z,19.80
2023-01-18T09:34:42.597Z,17.40
2023-01-18T09:39:51.951Z,21.58
2023-01-18T09:44:58.849Z,22.83
2023-01-18T09:50:11.014Z,26.73
2023-01-18T09:55:22.952Z,21.83
2023-01-18T10:00:28.810Z,22.35
2023-01-18T10:05:34.804Z,24.63
2023-01-18T10:10:39.849Z,19.98
2023-01-18T10:15:42.575Z,23.80
2023-01-18T10:20:44.348Z,22.52
2023-01-18T10:25:53.389Z,26.23
2023-01-18T10:30:58.171Z,24.80
2023-01-18T10:36:22.363Z,23.35
2023-01-18T10:41:31.726Z,21.13
2023-01-18T10:46:33.533Z,27.70
2023-01-18T10:51:37.669Z,24.20
2023-01-18T10:56:40.318Z,22.40
2023-01-18T11:01:54.490Z,26.95
2023-01-18T11:06:59.867Z,23.70
2023-01-18T11:12:42.777Z,26.40
2023-01-18T11:18:00.436Z,25.88
2023-01-18T11:23:16.360Z,25.77
2023-01-18T11:28:26.613Z,27.42
2023-01-18T11:33:30.970Z,26.25
2023-01-18T11:38:34.826Z,20.38
2023-01-18T11:43:39.496Z,21.83
2023-01-18T11:48:52.663Z,22.17
2023-01-18T11:54:05.825Z,19.98
2023-01-18T11:59:47.031Z,24.95
2023-01-18T12:04:51.569Z,28.00
2023-01-18T12:09:58.046Z,25.67
2023-01-18T12:15:14.690Z,24.50
2023-01-18T12:20:53.851Z,19.42
2023-01-18T12:26:12.310Z,23.67
2023-01-18T12:31:40.045Z,19.30
2023-01-18T12:36:47.449Z,21.33
2023-01-18T12:42:07.710Z,22.55
2023-01-18T12:47:35.031Z,25.25
2023-01-18T12:52:45.545Z,19.40
2023-01-18T12:57:51.162Z,26.77
2023-01-18T13:02:57.523Z,24.60
2023-01-18T13:08:06.461Z,19.02
2023-01-18T13:13:17.616Z,24.13
2023-01-18T13:18:33.433Z,18.15
2023-01-18T13:23:56.405Z,20.70
2023-01-18T13:29:10.453Z,18.13
2023-01-18T13:34:48.079Z,17.05
2023-01-18T13:39:52.555Z,18.20
2023-01-18T13:45:25.043Z,20.80
2023-01-18T13:50:36.392Z,24.33
2023-01-18T13:55:53.405Z,18.17
2023-01-18T14:01:06.098Z,15.10
2023-01-18T14:06:15.910Z,19.05
2023-01-18T14:11:27.399Z,15.95
2023-01-18T14:16:35.170Z,16.73
2023-01-18T14:22:16.561Z,17.25
2023-01-18T14:27:25.795Z,16.25
2023-01-18T14:32:35.808Z,19.27
2023-01-18T14:37:37.901Z,24.15
2023-01-18T14:42:50.354Z,19.98
2023-01-18T14:47:52.730Z,17.58
2023-01-18T14:52:54.717Z,18.77
2023-01-18T14:58:23.146Z,13.90
2023-01-18T15:03:29.796Z,19.58
2023-01-18T15:08:34.665Z,16.13
2023-01-18T15:13:49.231Z,13.63
2023-01-18T15:18:54.386Z,20.00
2023-01-18T15:24:09.184Z,22.80
2023-01-18T15:29:16.621Z,16.05
2023-01-18T15:34:25.364Z,19.27
2023-01-18T15:39:27.686Z,14.15
2023-01-18T15:44:50.018Z,16.65
2023-01-18T15:49:54.435Z,13.90
2023-01-18T15:54:56.940Z,12.00
2023-01-18T16:00:01.830Z,10.18
2023-01-18T16:05:21.317Z,13.45
2023-01-18T16:10:30.563Z,9.85
2023-01-18T16:15:32.586Z,12.45
2023-01-18T16:20:35.927Z,12.95
2023-01-18T16:25:37.999Z,10.20
2023-01-18T16:30:40.351Z,8.35
2023-01-18T16:35:42.306Z,6.60
2023-01-18T16:40:46.954Z,10.15
2023-01-18T16:45:51.463Z,8.65
2023-01-18T16:50:54.230Z,10.73
2023-01-18T16:55:56.777Z,6.57
2023-01-18T17:01:07.619Z,6.22
2023-01-18T17:06:16.760Z,6.05
2023-01-18T17:11:18.579Z,6.60
2023-01-18T17:16:20.771Z,6.10
2023-01-18T17:21:22.922Z,3.53
2023-01-18T17:26:24.761Z,7.25
2023-01-18T17:31:28.499Z,5.72
2023-01-18T17:36:30.308Z,5.05
2023-01-18T17:41:33.815Z,4.75
2023-01-18T17:46:36.656Z,5.35
2023-01-18T17:51:38.654Z,5.85
2023-01-18T17:56:40.473Z,4.50
2023-01-18T18:01:42.536Z,4.13
2023-01-18T18:06:53.746Z,2.60
2023-01-18T18:11:56.315Z,4.53
2023-01-18T18:16:58.291Z,7.65
2023-01-18T18:22:01.501Z,5.82
2023-01-18T18:27:03.275Z,6.68
2023-01-18T18:32:07.037Z,7.47
2023-01-18T18:37:08.958Z,5.07
2023-01-18T18:42:10.750Z,3.92
2023-01-18T18:47:13.483Z,2.63
2023-01-18T18:52:15.312Z,3.33
2023-01-18T18:57:17.168Z,2.08
2023-01-18T19:02:19.473Z,2.60
2023-01-18T19:07:21.547Z,2.10
2023-01-18T19:12:23.456Z,2.35
2023-01-18T19:17:30.637Z,1.70
2023-01-18T19:22:33.048Z,2.95
2023-01-18T19:27:34.868Z,1.55
2023-01-18T19:32:36.944Z,3.35
2023-01-18T19:37:38.800Z,4.70
2023-01-18T19:42:40.921Z,3.03
2023-01-18T19:47:42.906Z,4.18
2023-01-18T19:52:46.289Z,3.47
2023-01-18T19:57:49.031Z,1.63
2023-01-18T20:02:50.921Z,3.55
2023-01-18T20:07:53.172Z,5.80
2023-01-18T20:12:56.095Z,5.95
2023-01-18T20:17:57.928Z,3.70
2023-01-18T20:23:04.375Z,7.05
2023-01-18T20:28:06.336Z,7.03
2023-01-18T20:33:08.180Z,13.00
2023-01-18T20:38:10.653Z,8.32
2023-01-18T20:43:12.421Z,7.93
2023-01-18T20:48:14.391Z,8.57
2023-01-18T20:53:16.462Z,9.77
2023-01-18T20:58:18.193Z,8.30
2023-01-18T21:03:20.570Z,6.72
2023-01-18T21:08:22.608Z,10.27
2023-01-18T21:13:24.871Z,9.25
2023-01-18T21:18:27.299Z,6.85
2023-01-18T21:23:29.807Z,11.38
2023-01-18T21:28:31.567Z,8.57
2023-01-18T21:33:33.884Z,11.98
2023-01-18T21:38:36.199Z,11.32
2023-01-18T21:43:56.816Z,8.60
2023-01-18T21:49:06.823Z,10.55
2023-01-18T21:54:16.664Z,8.77
2023-01-18T21:59:18.547Z,9.18
2023-01-18T22:04:39.065Z,9.55
2023-01-18T22:09:42.721Z,14.07
2023-01-18T22:14:45.807Z,15.15
2023-01-18T22:19:48.253Z,9.75
2023-01-18T22:24:50.102Z,14.07
2023-01-18T22:29:51.864Z,15.63
2023-01-18T22:34:53.739Z,10.98
2023-01-18T22:39:55.568Z,11.05
2023-01-18T22:44:57.497Z,10.20
2023-01-18T22:49:59.245Z,10.98
2023-01-18T22:55:01.098Z,11.65
2023-01-18T23:00:04.702Z,10.50
2023-01-18T23:05:07.143Z,10.88
2023-01-18T23:10:09.740Z,16.88
2023-01-18T23:15:31.421Z,13.73
2023-01-18T23:20:33.389Z,15.05
2023-01-18T23:25:35.347Z,12.07
2023-01-18T23:30:37.156Z,19.23
2023-01-18T23:35:38.967Z,22.23
2023-01-18T23:40:59.451Z,9.88
2023-01-18T23:46:19.734Z,11.45
2023-01-18T23:51:40.137Z,11.93
2023-01-18T23:56:43.009Z,13.27
